createdAt,value
2019-02-05T00:04:30.223Z,-1.30
2019-02-05T00:09:33.608Z,-1.40
2019-02-05T00:14:37.367Z,-1.40
2019-02-05T00:19:40.756Z,-1.40
2019-02-05T00:24:44.139Z,-1.40
2019-02-05T00:29:47.537Z,-1.50
2019-02-05T00:34:50.919Z,-1.50
2019-02-05T00:39:54.583Z,-1.50
2019-02-05T00:44:57.981Z,-1.50
2019-02-05T00:50:01.363Z,-1.60
2019-02-05T00:55:07.949Z,-1.60
2019-02-05T01:00:26.417Z,-1.60
2019-02-05T01:05:29.930Z,-1.60
2019-02-05T01:10:33.393Z,-1.60
2019-02-05T01:15:36.783Z,-1.60
2019-02-05T01:20:40.171Z,-1.70
2019-02-05T01:25:43.623Z,-1.70
2019-02-05T01:30:47.004Z,-1.70
2019-02-05T01:35:50.403Z,-1.70
2019-02-05T01:40:53.784Z,-1.70
2019-02-05T01:45:57.167Z,-1.80
2019-02-05T01:51:00.851Z,-1.80
2019-02-05T01:56:04.310Z,-1.80
2019-02-05T02:01:07.846Z,-1.80
2019-02-05T02:06:11.311Z,-1.80
2019-02-05T02:11:14.715Z,-1.90
2019-02-05T02:16:18.475Z,-1.90
2019-02-05T02:21:21.858Z,-1.90
2019-02-05T02:26:25.245Z,-1.90
2019-02-05T02:31:28.827Z,-1.90
2019-02-05T02:36:32.209Z,-1.90
2019-02-05T02:41:35.873Z,-1.90
2019-02-05T02:46:39.256Z,-1.90
2019-02-05T02:51:42.704Z,-1.90
2019-02-05T02:56:46.162Z,-1.90
2019-02-05T03:01:49.548Z,-2.00
2019-02-05T03:06:53.283Z,-2.00
2019-02-05T03:11:56.715Z,-2.00
2019-02-05T03:17:00.104Z,-2.00
2019-02-05T03:22:03.477Z,-2.00
2019-02-05T03:27:17.173Z,-2.00
2019-02-05T03:32:11.969Z,-2.00
2019-02-05T03:37:15.355Z,-2.00
2019-02-05T03:42:18.756Z,-2.10
2019-02-05T03:47:22.279Z,-2.10
2019-02-05T03:52:26.213Z,-2.10
2019-02-05T03:57:35.607Z,-2.10
2019-02-05T04:03:07.599Z,-2.10
2019-02-05T04:08:20.064Z,-2.10
2019-02-05T04:13:44.422Z,-2.10
2019-02-05T04:18:50.898Z,-2.20
2019-02-05T04:24:23.859Z,-2.20
2019-02-05T04:29:39.219Z,-2.20
2019-02-05T04:35:03.160Z,-2.20
2019-02-05T04:40:18.294Z,-2.20
2019-02-05T04:45:35.925Z,-2.20
2019-02-05T04:50:57.054Z,-2.20
2019-02-05T04:56:06.087Z,-2.20
2019-02-05T05:01:33.644Z,-2.20
2019-02-05T05:06:54.903Z,-2.30
2019-02-05T05:11:58.330Z,-2.30
2019-02-05T05:17:01.725Z,-2.30
2019-02-05T05:22:05.573Z,-2.40
2019-02-05T05:27:09.100Z,-2.40
2019-02-05T05:32:12.505Z,-2.40
2019-02-05T05:37:14.815Z,-2.40
2019-02-05T05:42:18.206Z,-2.50
2019-02-05T05:47:21.959Z,-2.50
2019-02-05T05:52:25.343Z,-2.50
2019-02-05T05:57:28.742Z,-2.50
2019-02-05T06:02:32.130Z,-2.50
2019-02-05T06:07:35.527Z,-2.60
2019-02-05T06:12:38.923Z,-2.60
2019-02-05T06:17:42.392Z,-2.60
2019-02-05T06:22:45.839Z,-2.60
2019-02-05T06:27:49.400Z,-2.60
2019-02-05T06:32:52.776Z,-2.70
2019-02-05T06:37:56.159Z,-2.70
2019-02-05T06:42:59.618Z,-2.70
2019-02-05T06:48:03.023Z,-2.70
2019-02-05T06:53:06.780Z,-2.70
2019-02-05T06:58:10.160Z,-2.80
2019-02-05T07:03:13.796Z,-2.70
2019-02-05T07:08:17.188Z,-2.80
2019-02-05T07:13:20.639Z,-2.80
2019-02-05T07:18:24.030Z,-2.80
2019-02-05T07:23:27.487Z,-2.80
2019-02-05T07:28:30.967Z,-2.80
2019-02-05T07:33:34.632Z,-2.80
2019-02-05T07:38:38.048Z,-2.80
2019-02-05T07:43:41.523Z,-2.80
2019-02-05T07:48:45.218Z,-2.80
2019-02-05T07:53:48.628Z,-2.80
2019-02-05T07:58:52.037Z,-2.80
2019-02-05T08:03:56.310Z,-2.80
2019-02-05T08:08:59.820Z,-2.70
2019-02-05T08:14:06.086Z,-2.70
2019-02-05T08:19:09.202Z,-2.70
2019-02-05T08:24:12.623Z,-2.70
2019-02-05T08:29:21.676Z,-2.70
2019-02-05T08:34:21.265Z,-2.70
2019-02-05T08:39:24.684Z,-2.70
2019-02-05T08:44:28.435Z,-2.60
2019-02-05T08:49:31.864Z,-2.60
2019-02-05T08:54:35.277Z,-2.60
2019-02-05T08:59:38.735Z,-2.50
2019-02-05T09:04:42.111Z,-2.50
2019-02-05T09:09:45.620Z,-2.50
2019-02-05T09:14:49.056Z,-2.50
2019-02-05T09:19:52.443Z,-2.40
2019-02-05T09:24:55.837Z,-2.40
2019-02-05T09:29:59.220Z,-2.40
2019-02-05T09:35:02.673Z,-2.30
2019-02-05T09:40:09.408Z,-2.30
2019-02-05T09:45:13.732Z,-2.20
2019-02-05T09:50:17.756Z,-2.20
2019-02-05T09:55:21.770Z,-2.20
2019-02-05T10:00:30.545Z,-2.10
2019-02-05T10:05:35.152Z,-2.10
2019-02-05T10:10:38.599Z,-2.00
2019-02-05T10:15:42.927Z,-2.00
2019-02-05T10:20:46.311Z,-2.00
2019-02-05T10:25:49.690Z,-2.00
2019-02-05T10:30:53.154Z,-1.90
2019-02-05T10:35:56.663Z,-1.90
2019-02-05T10:41:00.039Z,-1.80
2019-02-05T10:46:04.091Z,-1.80
2019-02-05T10:51:07.487Z,-1.70
2019-02-05T10:56:10.887Z,-1.70
2019-02-05T11:01:14.355Z,-1.60
2019-02-05T11:06:20.017Z,-1.60
2019-02-05T11:11:22.859Z,-1.50
2019-02-05T11:16:26.251Z,-1.50
2019-02-05T11:21:29.653Z,-1.40
2019-02-05T11:26:33.311Z,-1.40
2019-02-05T11:31:36.699Z,-1.40
2019-02-05T11:36:40.087Z,-1.40
2019-02-05T11:41:43.471Z,-1.30
2019-02-05T11:46:46.850Z,-1.30
2019-02-05T11:51:50.247Z,-1.30
2019-02-05T11:56:53.636Z,-1.20
2019-02-05T12:01:57.051Z,-1.20
2019-02-05T12:07:00.711Z,-1.20
2019-02-05T12:12:04.263Z,-1.10
2019-02-05T12:17:07.656Z,-1.10
2019-02-05T12:22:11.123Z,-1.10
2019-02-05T12:27:14.511Z,-1.00
2019-02-05T12:32:17.911Z,-1.00
2019-02-05T12:37:21.292Z,-1.00
2019-02-05T12:42:24.685Z,-1.00
2019-02-05T12:47:28.068Z,-0.90
2019-02-05T12:52:31.456Z,-0.90
2019-02-05T12:57:34.839Z,-0.90
2019-02-05T13:02:38.319Z,-0.90
2019-02-05T13:07:41.698Z,-0.90
2019-02-05T13:12:45.170Z,-0.80
2019-02-05T13:17:48.551Z,-0.80
2019-02-05T13:22:51.954Z,-0.80
2019-02-05T13:27:55.523Z,-0.80
2019-02-05T13:32:59.362Z,-0.80
2019-02-05T13:38:02.773Z,-0.70
2019-02-05T13:43:06.812Z,-0.70
2019-02-05T13:48:10.271Z,-0.70
2019-02-05T13:53:13.651Z,-0.70
2019-02-05T13:58:17.055Z,-0.70
2019-02-05T14:03:20.523Z,-0.70
2019-02-05T14:08:23.932Z,-0.70
2019-02-05T14:13:27.322Z,-0.70
2019-02-05T14:18:30.776Z,-0.70
2019-02-05T14:23:34.171Z,-0.70
2019-02-05T14:28:37.559Z,-0.70
2019-02-05T14:33:40.943Z,-0.70
2019-02-05T14:38:44.335Z,-0.70
2019-02-05T14:43:47.712Z,-0.70
2019-02-05T14:48:51.099Z,-0.70
2019-02-05T14:53:54.491Z,-0.70
2019-02-05T14:58:57.885Z,-0.70
2019-02-05T15:04:01.267Z,-0.70
2019-02-05T15:09:06.491Z,-0.70
2019-02-05T15:14:09.900Z,-0.80
2019-02-05T15:19:13.675Z,-0.80
2019-02-05T15:24:17.047Z,-0.80
2019-02-05T15:29:20.425Z,-0.80
2019-02-05T15:34:23.807Z,-0.80
2019-02-05T15:39:27.195Z,-0.90
2019-02-05T15:44:30.859Z,-0.90
2019-02-05T15:49:34.255Z,-0.90
2019-02-05T15:54:37.638Z,-0.90
2019-02-05T15:59:41.040Z,-0.90
2019-02-05T16:04:44.426Z,-1.00
2019-02-05T16:09:48.095Z,-1.00
2019-02-05T16:14:51.495Z,-1.00
2019-02-05T16:19:54.895Z,-1.00
2019-02-05T16:24:58.300Z,-1.10
2019-02-05T16:30:01.692Z,-1.10
2019-02-05T16:35:06.902Z,-1.10
2019-02-05T16:40:15.868Z,-1.10
2019-02-05T16:45:22.355Z,-1.10
2019-02-05T16:50:31.739Z,-1.20
2019-02-05T16:55:35.171Z,-1.20
2019-02-05T17:00:39.334Z,-1.20
2019-02-05T17:05:43.306Z,-1.30
2019-02-05T17:10:46.954Z,-1.20
2019-02-05T17:15:50.348Z,-1.30
2019-02-05T17:20:53.745Z,-1.30
2019-02-05T17:25:57.136Z,-1.30
2019-02-05T17:31:00.519Z,-1.30
2019-02-05T17:36:04.427Z,-1.30
2019-02-05T17:41:07.835Z,-1.40
2019-02-05T17:46:11.226Z,-1.40
2019-02-05T17:51:14.625Z,-1.40
2019-02-05T17:56:18.000Z,-1.40
2019-02-05T18:01:21.566Z,-1.40
2019-02-05T18:06:24.955Z,-1.40
2019-02-05T18:11:28.415Z,-1.40
2019-02-05T18:16:31.799Z,-1.40
2019-02-05T18:21:35.196Z,-1.50
2019-02-05T18:26:38.768Z,-1.50
2019-02-05T18:31:42.159Z,-1.40
2019-02-05T18:36:45.536Z,-1.50
2019-02-05T18:41:48.925Z,-1.50
2019-02-05T18:46:52.333Z,-1.50
2019-02-05T18:51:55.905Z,-1.50
2019-02-05T18:56:59.282Z,-1.50
2019-02-05T19:02:02.723Z,-1.50
2019-02-05T19:07:06.157Z,-1.50
2019-02-05T19:12:09.583Z,-1.50
2019-02-05T19:17:13.251Z,-1.50
2019-02-05T19:22:16.652Z,-1.50
2019-02-05T19:27:20.040Z,-1.60
2019-02-05T19:32:24.103Z,-1.60
2019-02-05T19:37:27.492Z,-1.60
2019-02-05T19:42:31.164Z,-1.60
2019-02-05T19:47:34.611Z,-1.60
2019-02-05T19:52:38.049Z,-1.60
2019-02-05T19:57:41.436Z,-1.60
2019-02-05T20:02:45.228Z,-1.60
2019-02-05T20:07:48.643Z,-1.60
2019-02-05T20:12:52.014Z,-1.60
2019-02-05T20:17:55.400Z,-1.60
2019-02-05T20:22:58.804Z,-1.60
2019-02-05T20:28:02.188Z,-1.60
2019-02-05T20:33:05.568Z,-1.70
2019-02-05T20:38:09.310Z,-1.70
2019-02-05T20:43:12.707Z,-1.70
2019-02-05T20:48:16.108Z,-1.70
2019-02-05T20:53:19.499Z,-1.70
2019-02-05T20:58:22.898Z,-1.70
2019-02-05T21:03:26.279Z,-1.70
2019-02-05T21:08:29.683Z,-1.80
2019-02-05T21:13:33.364Z,-1.80
2019-02-05T21:18:37.406Z,-1.70
2019-02-05T21:23:41.003Z,-1.80
2019-02-05T21:28:44.388Z,-1.80
2019-02-05T21:33:47.788Z,-1.80
2019-02-05T21:38:51.166Z,-1.80
2019-02-05T21:43:54.551Z,-1.80
2019-02-05T21:48:57.937Z,-1.80
2019-02-05T21:54:01.323Z,-1.80
2019-02-05T21:59:05.303Z,-1.80
2019-02-05T22:04:10.193Z,-1.80
2019-02-05T22:09:14.103Z,-1.80
2019-02-05T22:14:17.495Z,-1.80
2019-02-05T22:19:21.200Z,-1.80
2019-02-05T22:24:24.641Z,-1.80
2019-02-05T22:29:28.030Z,-1.80
2019-02-05T22:34:38.872Z,-1.80
2019-02-05T22:39:36.527Z,-1.80
2019-02-05T22:44:39.919Z,-1.80
2019-02-05T22:49:43.311Z,-1.80
2019-02-05T22:54:46.894Z,-1.80
2019-02-05T22:59:50.347Z,-1.80
2019-02-05T23:04:56.816Z,-1.80
2019-02-05T23:10:03.275Z,-1.90
2019-02-05T23:15:09.815Z,-1.80
2019-02-05T23:20:15.942Z,-1.90
2019-02-05T23:25:19.488Z,-1.90
2019-02-05T23:30:23.327Z,-1.90
2019-02-05T23:35:26.723Z,-1.90
2019-02-05T23:40:30.132Z,-1.90
2019-02-05T23:45:33.519Z,-1.90
2019-02-05T23:50:36.979Z,-1.90
2019-02-05T23:55:40.386Z,-1.90
